sensor_id;sensor_type;location;lat;lon;timestamp;temperature;humidity
45313;SHT31;68267;51.540;5.854;2023-08-31T00:10:37;11.8;87.6
45313;SHT31;68267;51.540;5.854;2023-08-31T00:23:57;11.7;87.7
45313;SHT31;68267;51.540;5.854;2023-08-31T00:37:16;11.5;88.6
45313;SHT31;68267;51.540;5.854;2023-08-31T00:50:36;11.5;89.0
45313;SHT31;68267;51.540;5.854;2023-08-31T01:03:56;11.3;89.9
45313;SHT31;68267;51.540;5.854;2023-08-31T01:17:16;11.3;90.4
45313;SHT31;68267;51.540;5.854;2023-08-31T01:30:35;11.3;91.0
45313;SHT31;68267;51.540;5.854;2023-08-31T01:43:55;11.3;91.0
45313;SHT31;68267;51.540;5.854;2023-08-31T01:57:15;11.2;90.9
45313;SHT31;68267;51.540;5.854;2023-08-31T02:10:35;11.2;90.7
45313;SHT31;68267;51.540;5.854;2023-08-31T02:23:55;11.2;90.7
45313;SHT31;68267;51.540;5.854;2023-08-31T02:37:14;11.3;91.0
45313;SHT31;68267;51.540;5.854;2023-08-31T02:50:34;11.3;91.3
45313;SHT31;68267;51.540;5.854;2023-08-31T03:03:54;11.2;91.7
45313;SHT31;68267;51.540;5.854;2023-08-31T03:17:13;11.4;91.8
45313;SHT31;68267;51.540;5.854;2023-08-31T03:30:33;11.3;92.1
45313;SHT31;68267;51.540;5.854;2023-08-31T03:43:53;11.3;92.0
45313;SHT31;68267;51.540;5.854;2023-08-31T03:57:13;11.2;92.4
45313;SHT31;68267;51.540;5.854;2023-08-31T04:10:32;11.2;92.8
45313;SHT31;68267;51.540;5.854;2023-08-31T04:23:52;11.2;92.8
45313;SHT31;68267;51.540;5.854;2023-08-31T04:37:11;11.1;92.9
45313;SHT31;68267;51.540;5.854;2023-08-31T04:50:31;11.2;92.9
45313;SHT31;68267;51.540;5.854;2023-08-31T05:03:51;11.1;92.5
45313;SHT31;68267;51.540;5.854;2023-08-31T05:17:11;11.1;92.5
45313;SHT31;68267;51.540;5.854;2023-08-31T05:30:30;11.2;92.3
45313;SHT31;68267;51.540;5.854;2023-08-31T05:43:50;11.3;92.6
45313;SHT31;68267;51.540;5.854;2023-08-31T05:57:09;11.5;92.5
45313;SHT31;68267;51.540;5.854;2023-08-31T06:10:29;11.7;92.3
45313;SHT31;68267;51.540;5.854;2023-08-31T06:23:49;12.0;92.1
45313;SHT31;68267;51.540;5.854;2023-08-31T06:37:08;12.3;91.5
45313;SHT31;68267;51.540;5.854;2023-08-31T06:50:28;12.7;90.7
45313;SHT31;68267;51.540;5.854;2023-08-31T07:03:47;13.2;89.3
45313;SHT31;68267;51.540;5.854;2023-08-31T07:17:07;14.2;87.1
45313;SHT31;68267;51.540;5.854;2023-08-31T07:30:27;14.9;84.0
45313;SHT31;68267;51.540;5.854;2023-08-31T07:43:46;15.5;82.3
45313;SHT31;68267;51.540;5.854;2023-08-31T07:57:06;16.0;80.6
45313;SHT31;68267;51.540;5.854;2023-08-31T08:10:26;16.5;79.2
45313;SHT31;68267;51.540;5.854;2023-08-31T08:23:46;17.1;77.3
45313;SHT31;68267;51.540;5.854;2023-08-31T08:37:05;17.4;75.4
45313;SHT31;68267;51.540;5.854;2023-08-31T08:50:25;17.4;76.4
45313;SHT31;68267;51.540;5.854;2023-08-31T09:03:45;17.8;72.4
45313;SHT31;68267;51.540;5.854;2023-08-31T09:17:05;18.3;69.9
45313;SHT31;68267;51.540;5.854;2023-08-31T09:30:24;18.4;71.9
45313;SHT31;68267;51.540;5.854;2023-08-31T09:43:44;18.0;68.0
45313;SHT31;68267;51.540;5.854;2023-08-31T09:57:04;18.5;66.4
45313;SHT31;68267;51.540;5.854;2023-08-31T10:10:23;18.1;63.7
45313;SHT31;68267;51.540;5.854;2023-08-31T10:23:43;18.5;68.3
45313;SHT31;68267;51.540;5.854;2023-08-31T10:37:03;19.3;62.0
45313;SHT31;68267;51.540;5.854;2023-08-31T10:50:23;19.2;66.0
45313;SHT31;68267;51.540;5.854;2023-08-31T11:03:42;19.2;61.9
45313;SHT31;68267;51.540;5.854;2023-08-31T11:17:02;19.5;62.5
45313;SHT31;68267;51.540;5.854;2023-08-31T11:30:22;19.8;58.8
45313;SHT31;68267;51.540;5.854;2023-08-31T11:43:41;20.1;60.4
45313;SHT31;68267;51.540;5.854;2023-08-31T11:57:01;19.5;60.7
45313;SHT31;68267;51.540;5.854;2023-08-31T12:10:21;19.3;64.2
45313;SHT31;68267;51.540;5.854;2023-08-31T12:23:40;20.2;61.4
45313;SHT31;68267;51.540;5.854;2023-08-31T12:37:00;19.7;61.8
45313;SHT31;68267;51.540;5.854;2023-08-31T12:50:20;16.3;80.3
45313;SHT31;68267;51.540;5.854;2023-08-31T13:03:40;15.4;83.5
45313;SHT31;68267;51.540;5.854;2023-08-31T13:16:59;15.4;83.9
45313;SHT31;68267;51.540;5.854;2023-08-31T13:30:19;15.4;84.6
45313;SHT31;68267;51.540;5.854;2023-08-31T13:43:39;15.8;83.7
45313;SHT31;68267;51.540;5.854;2023-08-31T13:56:58;15.6;85.0
45313;SHT31;68267;51.540;5.854;2023-08-31T14:10:18;15.4;85.5
45313;SHT31;68267;51.540;5.854;2023-08-31T14:23:38;15.6;85.2
45313;SHT31;68267;51.540;5.854;2023-08-31T14:36:58;17.4;82.1
45313;SHT31;68267;51.540;5.854;2023-08-31T14:50:17;17.9;76.8
45313;SHT31;68267;51.540;5.854;2023-08-31T15:03:37;18.8;73.3
45313;SHT31;68267;51.540;5.854;2023-08-31T15:16:56;19.2;71.8
45313;SHT31;68267;51.540;5.854;2023-08-31T15:30:16;19.2;72.3
45313;SHT31;68267;51.540;5.854;2023-08-31T15:43:36;18.9;73.6
45313;SHT31;68267;51.540;5.854;2023-08-31T15:56:56;18.8;75.3
45313;SHT31;68267;51.540;5.854;2023-08-31T16:10:15;18.2;76.7
45313;SHT31;68267;51.540;5.854;2023-08-31T16:23:35;18.0;77.9
45313;SHT31;68267;51.540;5.854;2023-08-31T16:36:55;18.2;78.8
45313;SHT31;68267;51.540;5.854;2023-08-31T16:50:15;18.7;78.7
45313;SHT31;68267;51.540;5.854;2023-08-31T17:03:34;18.5;78.5
45313;SHT31;68267;51.540;5.854;2023-08-31T17:16:54;18.4;79.3
45313;SHT31;68267;51.540;5.854;2023-08-31T17:30:14;18.5;79.2
45313;SHT31;68267;51.540;5.854;2023-08-31T17:43:34;18.3;80.0
45313;SHT31;68267;51.540;5.854;2023-08-31T17:56:54;18.0;80.7
45313;SHT31;68267;51.540;5.854;2023-08-31T18:10:14;17.9;81.0
45313;SHT31;68267;51.540;5.854;2023-08-31T18:23:33;17.7;82.2
45313;SHT31;68267;51.540;5.854;2023-08-31T18:36:53;17.2;83.3
45313;SHT31;68267;51.540;5.854;2023-08-31T18:50:13;16.8;83.9
45313;SHT31;68267;51.540;5.854;2023-08-31T19:03:32;16.4;84.6
45313;SHT31;68267;51.540;5.854;2023-08-31T19:16:52;16.1;84.9
45313;SHT31;68267;51.540;5.854;2023-08-31T19:30:12;15.8;82.8
45313;SHT31;68267;51.540;5.854;2023-08-31T19:43:31;15.7;82.3
45313;SHT31;68267;51.540;5.854;2023-08-31T19:56:51;15.4;82.6
45313;SHT31;68267;51.540;5.854;2023-08-31T20:10:11;15.1;82.3
45313;SHT31;68267;51.540;5.854;2023-08-31T20:23:30;14.9;81.8
45313;SHT31;68267;51.540;5.854;2023-08-31T20:36:50;14.9;81.7
45313;SHT31;68267;51.540;5.854;2023-08-31T20:50:10;14.6;82.5
45313;SHT31;68267;51.540;5.854;2023-08-31T21:03:29;14.4;83.0
45313;SHT31;68267;51.540;5.854;2023-08-31T21:16:49;14.4;83.4
45313;SHT31;68267;51.540;5.854;2023-08-31T21:30:09;14.2;83.4
45313;SHT31;68267;51.540;5.854;2023-08-31T21:43:28;14.0;84.1
45313;SHT31;68267;51.540;5.854;2023-08-31T21:56:48;13.8;84.6
45313;SHT31;68267;51.540;5.854;2023-08-31T22:10:07;13.6;84.9
45313;SHT31;68267;51.540;5.854;2023-08-31T22:23:27;13.5;86.0
45313;SHT31;68267;51.540;5.854;2023-08-31T22:36:47;13.5;86.9
45313;SHT31;68267;51.540;5.854;2023-08-31T22:50:06;13.4;87.1
45313;SHT31;68267;51.540;5.854;2023-08-31T23:03:26;13.5;87.1
45313;SHT31;68267;51.540;5.854;2023-08-31T23:16:46;13.4;86.9
45313;SHT31;68267;51.540;5.854;2023-08-31T23:30:06;13.3;87.1
45313;SHT31;68267;51.540;5.854;2023-08-31T23:43:26;13.3;87.5
45313;SHT31;68267;51.540;5.854;2023-08-31T23:56:45;13.3;87.8
